Apiliotis — SYVY — position and weather

sailwx.info

Track history (hours):
 
Tides and Currents Weather Stations Pressure Air Temp Water Temp Dewpoint Dewpoint Depression Visibility Wind Speed Wind Dir Waves Ship Positions

Apiliotis

Last reported at 2016-May-06 06:33 UTC. Time now 2016-May-06 09:20 UTC.
Position N 36°45' E 025°28'.

Length 79 m; draft 4.5 m.

Type: Ship. MMSI: 240438000.

Date/timePositionNaut miles runAvg speedWind from/ knotsBaromVisibWave heightAir tempDewpointWater temp
2016-May-06 06:33N 36°45' E 025°28'6 2.5
2016-May-06 04:14N 36°49' E 025°33'1010.9
2016-May-06 03:19N 36°50' E 025°45'4 0.4
2016-May-05 18:33N 36°51' E 025°50'8 5.6
2016-May-05 17:11N 36°54' E 025°58'811.2
2016-May-05 16:29N 36°60' E 025°51'1212.5
2016-May-05 15:33N 37°08' E 025°41'1212.2
2016-May-05 14:34N 37°15' E 025°29'1212.0
2016-May-05 13:33N 37°20' E 025°15'1212.0
2016-May-05 12:34N 37°25' E 025°01'4 1.9
2016-May-05 10:26N 37°26' E 024°56'0 0.0
2016-May-05 08:11N 37°26' E 024°56'0 0.0
2016-May-05 07:28N 37°26' E 024°56'0 0.0
2016-May-05 06:26N 37°26' E 024°56'0 0.0
2016-May-05 04:32N 37°26' E 024°56'0 0.0
2016-May-05 02:18N 37°26' E 024°56'0 0.0
2016-May-05 01:33N 37°26' E 024°56'0 0.0
2016-May-04 23:32N 37°26' E 024°56'0 0.0
2016-May-04 20:25N 37°26' E 024°56'0 0.0
2016-May-04 18:22N 37°26' E 024°56'0 0.0
2016-May-04 17:17N 37°26' E 024°56'0 0.0
2016-May-04 16:30N 37°26' E 024°56'0 0.0
2016-May-04 15:29N 37°26' E 024°56'0 0.0
2016-May-04 14:32N 37°26' E 024°56'0 0.0
2016-May-04 12:28N 37°26' E 024°56'5 5.4
2016-May-04 11:34N 37°21' E 024°56'1312.7
2016-May-04 10:30N 37°11' E 024°45'13 1.3
2016-May-04 00:33N 37°02' E 024°57'1211.0
2016-May-03 23:26N 37°09' E 025°10'8 9.0
2016-May-03 22:33N 37°08' E 025°20'2 2.1
2016-May-03 21:33N 37°06' E 025°21'0 0.0
2016-May-03 20:33N 37°06' E 025°21'0 0.0
2016-May-03 19:33N 37°06' E 025°21'0 0.0
2016-May-03 18:33N 37°06' E 025°21'0 0.0
2016-May-03 17:33N 37°06' E 025°21'0 0.1
2016-May-03 16:34N 37°06' E 025°21'0 0.1
2016-May-03 15:33N 37°06' E 025°21'0 0.0
2016-May-03 14:33N 37°06' E 025°21'0 0.0
2016-May-03 13:33N 37°06' E 025°21'0 0.1
2016-May-03 12:34N 37°06' E 025°22'0 0.1
2016-May-03 11:34N 37°06' E 025°22'10 8.8
2016-May-03 10:23N 37°08' E 025°09'3 3.1
2016-May-03 09:25N 37°05' E 025°09'1 0.3
2016-May-03 07:28N 37°06' E 025°08'0 0.1
2016-May-03 06:30N 37°06' E 025°08'1 0.4
2016-May-03 03:33N 37°05' E 025°07'0 0.0
2016-May-03 01:10N 37°05' E 025°07'0 0.0
2016-May-03 00:28N 37°05' E 025°07'5 5.4
2016-May-02 23:34N 37°05' E 025°01'1312.1
2016-May-02 22:27N 37°03' E 024°45'40 5.0
2016-May-02 14:26N 37°22' E 024°01'1011.6
2016-May-02 13:33N 37°29' E 023°52'1111.4
2016-May-02 12:33N 37°38' E 023°43'1111.5
2016-May-02 11:33N 37°48' E 023°37'1110.7
2016-May-02 10:33N 37°59' E 023°33'3 3.3
2016-May-02 09:33N 38°02' E 023°32'0 0.0
2016-May-02 08:33N 38°02' E 023°32'0 0.1
2016-May-02 07:33N 38°02' E 023°32'0 0.0
2016-May-02 06:34N 38°02' E 023°32'0 0.0
2016-May-02 05:33N 38°02' E 023°32'0 0.1
2016-May-02 04:33N 38°02' E 023°32'0 0.0
2016-May-02 03:33N 38°02' E 023°32'0 0.0
2016-May-02 02:33N 38°02' E 023°32'0 0.0
2016-May-02 01:33N 38°02' E 023°32'0 0.0
2016-May-02 00:33N 38°02' E 023°32'0 0.0
2016-May-01 23:33N 38°02' E 023°32'0 0.0
2016-May-01 22:33N 38°02' E 023°32'0 0.0
2016-May-01 21:33N 38°02' E 023°32'0 0.1
2016-May-01 20:33N 38°02' E 023°32'0 0.0
2016-May-01 19:33N 38°02' E 023°32'0 0.0
2016-May-01 18:33N 38°02' E 023°32'0 0.0
2016-May-01 17:33N 38°02' E 023°32'0 0.0
2016-May-01 16:33N 38°02' E 023°32'0 0.0
2016-May-01 15:33N 38°02' E 023°32'0 0.0
2016-May-01 14:33N 38°02' E 023°32'0 0.0
2016-May-01 13:33N 38°02' E 023°32'0 0.0
2016-May-01 12:34N 38°02' E 023°32'0 0.0
2016-May-01 11:33N 38°02' E 023°32'0 0.1
2016-May-01 10:33N 38°02' E 023°32'0 0.0
2016-May-01 09:33N 38°02' E 023°32'0 0.0
2016-May-01 08:34N 38°02' E 023°32'0 0.0
2016-May-01 07:33N 38°02' E 023°32'0 0.0
2016-May-01 06:33N 38°02' E 023°32'0 0.0
2016-May-01 05:33N 38°02' E 023°32'0 0.0
2016-May-01 04:33N 38°02' E 023°32'0 0.0
2016-May-01 03:34N 38°02' E 023°32'0 0.0
2016-May-01 02:33N 38°02' E 023°32'0 0.0
2016-May-01 01:33N 38°02' E 023°32'0 0.0
2016-May-01 00:33N 38°02' E 023°32'0 0.0
2016-Apr-30 23:33N 38°02' E 023°32'0 0.0
2016-Apr-30 22:33N 38°02' E 023°32'0 0.0
2016-Apr-30 21:33N 38°02' E 023°32'0 0.0
2016-Apr-30 20:33N 38°02' E 023°32'0 0.0
2016-Apr-30 19:33N 38°02' E 023°32'0 0.0
2016-Apr-30 18:33N 38°02' E 023°32'0 0.0
2016-Apr-30 17:34N 38°02' E 023°32'0 0.0
2016-Apr-30 16:33N 38°02' E 023°32'0 0.0
2016-Apr-30 15:33N 38°02' E 023°32'0 0.0
2016-Apr-30 14:34N 38°02' E 023°32'0 0.0
2016-Apr-30 13:34N 38°02' E 023°32'0 0.0
2016-Apr-30 12:34N 38°02' E 023°32'0 0.0
2016-Apr-30 11:34N 38°02' E 023°32'0 0.0
2016-Apr-30 10:33N 38°02' E 023°32'0 0.0
2016-Apr-30 09:33N 38°02' E 023°32'0 0.0
2016-Apr-30 08:33N 38°02' E 023°32'0 0.0
2016-Apr-30 07:33N 38°02' E 023°32'0 0.0
2016-Apr-30 06:33N 38°02' E 023°32'0 0.0
2016-Apr-30 05:33N 38°02' E 023°32'0 0.0
2016-Apr-30 04:33N 38°02' E 023°32'0 0.0
2016-Apr-30 03:34N 38°02' E 023°32'0 0.0
2016-Apr-30 02:33N 38°02' E 023°32'0 0.0
2016-Apr-30 01:34N 38°02' E 023°32'0 0.0
2016-Apr-30 00:33N 38°02' E 023°32'0 0.0
2016-Apr-29 23:34N 38°02' E 023°32'0 0.0
2016-Apr-29 22:34N 38°02' E 023°32'0 0.0
2016-Apr-29 21:33N 38°02' E 023°32'0 0.0
2016-Apr-29 20:33N 38°02' E 023°32'0 0.0
2016-Apr-29 19:33N 38°02' E 023°32'0 0.0
2016-Apr-29 18:33N 38°02' E 023°32'0 0.0
2016-Apr-29 17:34N 38°02' E 023°32'0 0.0
2016-Apr-29 16:33N 38°02' E 023°32'0 0.0
2016-Apr-29 15:34N 38°02' E 023°32'0 0.0
2016-Apr-29 14:34N 38°02' E 023°32'0 0.0
2016-Apr-29 13:34N 38°02' E 023°32'0 0.0
2016-Apr-29 12:33N 38°02' E 023°32'0 0.0
2016-Apr-29 11:33N 38°02' E 023°32'0 0.0
2016-Apr-29 10:33N 38°02' E 023°32'0 0.0
2016-Apr-29 09:34N 38°02' E 023°32'0 0.0
2016-Apr-29 08:33N 38°02' E 023°32'0 0.0
2016-Apr-29 07:33N 38°02' E 023°32'0 0.0
2016-Apr-29 06:33N 38°02' E 023°32'6 6.3
2016-Apr-29 05:33N 37°59' E 023°25'1010.1
2016-Apr-29 04:33N 37°55' E 023°13'6 5.8
2016-Apr-29 03:32N 37°55' E 023°05'0 0.0
2016-Apr-29 02:33N 37°55' E 023°05'0 0.0
2016-Apr-29 01:33N 37°55' E 023°05'0 0.0
2016-Apr-29 00:33N 37°55' E 023°05'0 0.0
2016-Apr-28 23:33N 37°55' E 023°05'0 0.0
2016-Apr-28 22:33N 37°55' E 023°05'0 0.0
2016-Apr-28 21:33N 37°55' E 023°05'0 0.0
2016-Apr-28 20:33N 37°55' E 023°05'0 0.0
2016-Apr-28 19:33N 37°55' E 023°05'0 0.0
2016-Apr-28 18:33N 37°55' E 023°05'0 0.0
2016-Apr-28 17:33N 37°55' E 023°05'1010.2
2016-Apr-28 16:33N 37°52' E 023°18'1212.0
2016-Apr-28 15:33N 37°50' E 023°32'1010.4
2016-Apr-28 14:33N 37°44' E 023°43'1111.3
2016-Apr-28 13:34N 37°37' E 023°55'19 1.9
2016-Apr-28 03:34N 37°40' E 024°19'0 0.0
2016-Apr-28 02:34N 37°40' E 024°19'0 0.0
2016-Apr-28 01:33N 37°40' E 024°19'0 0.0
2016-Apr-28 00:34N 37°40' E 024°19'0 0.0
2016-Apr-27 23:34N 37°40' E 024°19'0 0.0
2016-Apr-27 22:33N 37°40' E 024°19'2 1.7
2016-Apr-27 21:34N 37°41' E 024°19'1110.7
2016-Apr-27 20:33N 37°38' E 024°32'1111.5
2016-Apr-27 19:34N 37°34' E 024°46'1110.7
2016-Apr-27 18:32N 37°28' E 024°58'3 2.1
2016-Apr-27 17:12N 37°26' E 024°56'0 0.0
2016-Apr-27 13:19N 37°26' E 024°56'0 0.0
2016-Apr-27 12:31N 37°26' E 024°56'0 0.0
2016-Apr-27 11:28N 37°26' E 024°56'1 0.9
2016-Apr-27 10:27N 37°26' E 024°57'22 3.2
2016-Apr-27 03:34N 37°47' E 024°47'1110.8
2016-Apr-27 02:32N 37°38' E 024°56'1010.4
2016-Apr-27 01:34N 37°32' E 025°05'1110.8
2016-Apr-27 00:34N 37°28' E 025°18'1 1.2
2016-Apr-26 23:33N 37°28' E 025°20'0 0.0
2016-Apr-26 22:33N 37°28' E 025°20'0 0.0
2016-Apr-26 21:34N 37°28' E 025°20'0 0.0
2016-Apr-26 20:33N 37°28' E 025°20'0 0.0
2016-Apr-26 19:34N 37°28' E 025°20'0 0.0
2016-Apr-26 18:34N 37°28' E 025°20'2 2.3
2016-Apr-26 17:34N 37°28' E 025°17'7 7.0
2016-Apr-26 16:33N 37°32' E 025°09'0 0.0
2016-Apr-26 15:33N 37°32' E 025°09'0 0.3
2016-Apr-26 14:34N 37°32' E 025°09'1 1.0
2016-Apr-26 13:33N 37°33' E 025°08'3 2.5
2016-Apr-26 12:34N 37°31' E 025°11'1111.1
2016-Apr-26 11:34N 37°31' E 025°25'1110.9
2016-Apr-26 10:33N 37°31' E 025°38'1110.9
2016-Apr-26 09:33N 37°30' E 025°52'  
Track history (hours):
 
Tides and Currents Weather Stations Pressure Air Temp Water Temp Dewpoint Dewpoint Depression Visibility Wind Speed Wind Dir Waves Ship Positions

Apiliotis

Last reported at 2016-May-06 06:33 UTC. Time now 2016-May-06 09:20 UTC.
Position N 36°45' E 025°28'.

Length 79 m; draft 4.5 m.

Type: Ship. MMSI: 240438000.

Date/timePositionNaut miles runAvg speedWind from/ knotsBaromVisibWave heightAir tempDewpointWater temp
2016-May-06 06:33N 36°45' E 025°28'6 2.5
2016-May-06 04:14N 36°49' E 025°33'1010.9
2016-May-06 03:19N 36°50' E 025°45'4 0.4
2016-May-05 18:33N 36°51' E 025°50'8 5.6
2016-May-05 17:11N 36°54' E 025°58'811.2
2016-May-05 16:29N 36°60' E 025°51'1212.5
2016-May-05 15:33N 37°08' E 025°41'1212.2
2016-May-05 14:34N 37°15' E 025°29'1212.0
2016-May-05 13:33N 37°20' E 025°15'1212.0
2016-May-05 12:34N 37°25' E 025°01'4 1.9
2016-May-05 10:26N 37°26' E 024°56'0 0.0
2016-May-05 08:11N 37°26' E 024°56'0 0.0
2016-May-05 07:28N 37°26' E 024°56'0 0.0
2016-May-05 06:26N 37°26' E 024°56'0 0.0
2016-May-05 04:32N 37°26' E 024°56'0 0.0
2016-May-05 02:18N 37°26' E 024°56'0 0.0
2016-May-05 01:33N 37°26' E 024°56'0 0.0
2016-May-04 23:32N 37°26' E 024°56'0 0.0
2016-May-04 20:25N 37°26' E 024°56'0 0.0
2016-May-04 18:22N 37°26' E 024°56'0 0.0
2016-May-04 17:17N 37°26' E 024°56'0 0.0
2016-May-04 16:30N 37°26' E 024°56'0 0.0
2016-May-04 15:29N 37°26' E 024°56'0 0.0
2016-May-04 14:32N 37°26' E 024°56'0 0.0
2016-May-04 12:28N 37°26' E 024°56'5 5.4
2016-May-04 11:34N 37°21' E 024°56'1312.7
2016-May-04 10:30N 37°11' E 024°45'13 1.3
2016-May-04 00:33N 37°02' E 024°57'1211.0
2016-May-03 23:26N 37°09' E 025°10'8 9.0
2016-May-03 22:33N 37°08' E 025°20'2 2.1
2016-May-03 21:33N 37°06' E 025°21'0 0.0
2016-May-03 20:33N 37°06' E 025°21'0 0.0
2016-May-03 19:33N 37°06' E 025°21'0 0.0
2016-May-03 18:33N 37°06' E 025°21'0 0.0
2016-May-03 17:33N 37°06' E 025°21'0 0.1
2016-May-03 16:34N 37°06' E 025°21'0 0.1
2016-May-03 15:33N 37°06' E 025°21'0 0.0
2016-May-03 14:33N 37°06' E 025°21'0 0.0
2016-May-03 13:33N 37°06' E 025°21'0 0.1
2016-May-03 12:34N 37°06' E 025°22'0 0.1
2016-May-03 11:34N 37°06' E 025°22'10 8.8
2016-May-03 10:23N 37°08' E 025°09'3 3.1
2016-May-03 09:25N 37°05' E 025°09'1 0.3
2016-May-03 07:28N 37°06' E 025°08'0 0.1
2016-May-03 06:30N 37°06' E 025°08'1 0.4
2016-May-03 03:33N 37°05' E 025°07'0 0.0
2016-May-03 01:10N 37°05' E 025°07'0 0.0
2016-May-03 00:28N 37°05' E 025°07'5 5.4
2016-May-02 23:34N 37°05' E 025°01'1312.1
2016-May-02 22:27N 37°03' E 024°45'40 5.0
2016-May-02 14:26N 37°22' E 024°01'1011.6
2016-May-02 13:33N 37°29' E 023°52'1111.4
2016-May-02 12:33N 37°38' E 023°43'1111.5
2016-May-02 11:33N 37°48' E 023°37'1110.7
2016-May-02 10:33N 37°59' E 023°33'3 3.3
2016-May-02 09:33N 38°02' E 023°32'0 0.0
2016-May-02 08:33N 38°02' E 023°32'0 0.1
2016-May-02 07:33N 38°02' E 023°32'0 0.0
2016-May-02 06:34N 38°02' E 023°32'0 0.0
2016-May-02 05:33N 38°02' E 023°32'0 0.1
2016-May-02 04:33N 38°02' E 023°32'0 0.0
2016-May-02 03:33N 38°02' E 023°32'0 0.0
2016-May-02 02:33N 38°02' E 023°32'0 0.0
2016-May-02 01:33N 38°02' E 023°32'0 0.0
2016-May-02 00:33N 38°02' E 023°32'0 0.0
2016-May-01 23:33N 38°02' E 023°32'0 0.0
2016-May-01 22:33N 38°02' E 023°32'0 0.0
2016-May-01 21:33N 38°02' E 023°32'0 0.1
2016-May-01 20:33N 38°02' E 023°32'0 0.0
2016-May-01 19:33N 38°02' E 023°32'0 0.0
2016-May-01 18:33N 38°02' E 023°32'0 0.0
2016-May-01 17:33N 38°02' E 023°32'0 0.0
2016-May-01 16:33N 38°02' E 023°32'0 0.0
2016-May-01 15:33N 38°02' E 023°32'0 0.0
2016-May-01 14:33N 38°02' E 023°32'0 0.0
2016-May-01 13:33N 38°02' E 023°32'0 0.0
2016-May-01 12:34N 38°02' E 023°32'0 0.0
2016-May-01 11:33N 38°02' E 023°32'0 0.1
2016-May-01 10:33N 38°02' E 023°32'0 0.0
2016-May-01 09:33N 38°02' E 023°32'0 0.0
2016-May-01 08:34N 38°02' E 023°32'0 0.0
2016-May-01 07:33N 38°02' E 023°32'0 0.0
2016-May-01 06:33N 38°02' E 023°32'0 0.0
2016-May-01 05:33N 38°02' E 023°32'0 0.0
2016-May-01 04:33N 38°02' E 023°32'0 0.0
2016-May-01 03:34N 38°02' E 023°32'0 0.0
2016-May-01 02:33N 38°02' E 023°32'0 0.0
2016-May-01 01:33N 38°02' E 023°32'0 0.0
2016-May-01 00:33N 38°02' E 023°32'0 0.0
2016-Apr-30 23:33N 38°02' E 023°32'0 0.0
2016-Apr-30 22:33N 38°02' E 023°32'0 0.0
2016-Apr-30 21:33N 38°02' E 023°32'0 0.0
2016-Apr-30 20:33N 38°02' E 023°32'0 0.0
2016-Apr-30 19:33N 38°02' E 023°32'0 0.0
2016-Apr-30 18:33N 38°02' E 023°32'0 0.0
2016-Apr-30 17:34N 38°02' E 023°32'0 0.0
2016-Apr-30 16:33N 38°02' E 023°32'0 0.0
2016-Apr-30 15:33N 38°02' E 023°32'0 0.0
2016-Apr-30 14:34N 38°02' E 023°32'0 0.0
2016-Apr-30 13:34N 38°02' E 023°32'0 0.0
2016-Apr-30 12:34N 38°02' E 023°32'0 0.0
2016-Apr-30 11:34N 38°02' E 023°32'0 0.0
2016-Apr-30 10:33N 38°02' E 023°32'0 0.0
2016-Apr-30 09:33N 38°02' E 023°32'0 0.0
2016-Apr-30 08:33N 38°02' E 023°32'0 0.0
2016-Apr-30 07:33N 38°02' E 023°32'0 0.0
2016-Apr-30 06:33N 38°02' E 023°32'0 0.0
2016-Apr-30 05:33N 38°02' E 023°32'0 0.0
2016-Apr-30 04:33N 38°02' E 023°32'0 0.0
2016-Apr-30 03:34N 38°02' E 023°32'0 0.0
2016-Apr-30 02:33N 38°02' E 023°32'0 0.0
2016-Apr-30 01:34N 38°02' E 023°32'0 0.0
2016-Apr-30 00:33N 38°02' E 023°32'0 0.0
2016-Apr-29 23:34N 38°02' E 023°32'0 0.0
2016-Apr-29 22:34N 38°02' E 023°32'0 0.0
2016-Apr-29 21:33N 38°02' E 023°32'0 0.0
2016-Apr-29 20:33N 38°02' E 023°32'0 0.0
2016-Apr-29 19:33N 38°02' E 023°32'0 0.0
2016-Apr-29 18:33N 38°02' E 023°32'0 0.0
2016-Apr-29 17:34N 38°02' E 023°32'0 0.0
2016-Apr-29 16:33N 38°02' E 023°32'0 0.0
2016-Apr-29 15:34N 38°02' E 023°32'0 0.0
2016-Apr-29 14:34N 38°02' E 023°32'0 0.0
2016-Apr-29 13:34N 38°02' E 023°32'0 0.0
2016-Apr-29 12:33N 38°02' E 023°32'0 0.0
2016-Apr-29 11:33N 38°02' E 023°32'0 0.0
2016-Apr-29 10:33N 38°02' E 023°32'0 0.0
2016-Apr-29 09:34N 38°02' E 023°32'0 0.0
2016-Apr-29 08:33N 38°02' E 023°32'0 0.0
2016-Apr-29 07:33N 38°02' E 023°32'0 0.0
2016-Apr-29 06:33N 38°02' E 023°32'6 6.3
2016-Apr-29 05:33N 37°59' E 023°25'1010.1
2016-Apr-29 04:33N 37°55' E 023°13'6 5.8
2016-Apr-29 03:32N 37°55' E 023°05'0 0.0
2016-Apr-29 02:33N 37°55' E 023°05'0 0.0
2016-Apr-29 01:33N 37°55' E 023°05'0 0.0
2016-Apr-29 00:33N 37°55' E 023°05'0 0.0
2016-Apr-28 23:33N 37°55' E 023°05'0 0.0
2016-Apr-28 22:33N 37°55' E 023°05'0 0.0
2016-Apr-28 21:33N 37°55' E 023°05'0 0.0
2016-Apr-28 20:33N 37°55' E 023°05'0 0.0
2016-Apr-28 19:33N 37°55' E 023°05'0 0.0
2016-Apr-28 18:33N 37°55' E 023°05'0 0.0
2016-Apr-28 17:33N 37°55' E 023°05'1010.2
2016-Apr-28 16:33N 37°52' E 023°18'1212.0
2016-Apr-28 15:33N 37°50' E 023°32'1010.4
2016-Apr-28 14:33N 37°44' E 023°43'1111.3
2016-Apr-28 13:34N 37°37' E 023°55'19 1.9
2016-Apr-28 03:34N 37°40' E 024°19'0 0.0
2016-Apr-28 02:34N 37°40' E 024°19'0 0.0
2016-Apr-28 01:33N 37°40' E 024°19'0 0.0
2016-Apr-28 00:34N 37°40' E 024°19'0 0.0
2016-Apr-27 23:34N 37°40' E 024°19'0 0.0
2016-Apr-27 22:33N 37°40' E 024°19'2 1.7
2016-Apr-27 21:34N 37°41' E 024°19'1110.7
2016-Apr-27 20:33N 37°38' E 024°32'1111.5
2016-Apr-27 19:34N 37°34' E 024°46'1110.7
2016-Apr-27 18:32N 37°28' E 024°58'3 2.1
2016-Apr-27 17:12N 37°26' E 024°56'0 0.0
2016-Apr-27 13:19N 37°26' E 024°56'0 0.0
2016-Apr-27 12:31N 37°26' E 024°56'0 0.0
2016-Apr-27 11:28N 37°26' E 024°56'1 0.9
2016-Apr-27 10:27N 37°26' E 024°57'22 3.2
2016-Apr-27 03:34N 37°47' E 024°47'1110.8
2016-Apr-27 02:32N 37°38' E 024°56'1010.4
2016-Apr-27 01:34N 37°32' E 025°05'1110.8
2016-Apr-27 00:34N 37°28' E 025°18'1 1.2
2016-Apr-26 23:33N 37°28' E 025°20'0 0.0
2016-Apr-26 22:33N 37°28' E 025°20'0 0.0
2016-Apr-26 21:34N 37°28' E 025°20'0 0.0
2016-Apr-26 20:33N 37°28' E 025°20'0 0.0
2016-Apr-26 19:34N 37°28' E 025°20'0 0.0
2016-Apr-26 18:34N 37°28' E 025°20'2 2.3
2016-Apr-26 17:34N 37°28' E 025°17'7 7.0
2016-Apr-26 16:33N 37°32' E 025°09'0 0.0
2016-Apr-26 15:33N 37°32' E 025°09'0 0.3
2016-Apr-26 14:34N 37°32' E 025°09'1 1.0
2016-Apr-26 13:33N 37°33' E 025°08'3 2.5
2016-Apr-26 12:34N 37°31' E 025°11'1111.1
2016-Apr-26 11:34N 37°31' E 025°25'1110.9
2016-Apr-26 10:33N 37°31' E 025°38'1110.9
2016-Apr-26 09:33N 37°30' E 025°52'  

Dump ship's entire track history